createdAt,value
2023-05-05T00:01:47.306Z,93.79
2023-05-05T00:04:14.850Z,94.17
2023-05-05T00:06:42.246Z,94.35
2023-05-05T00:09:09.504Z,94.66
2023-05-05T00:11:36.714Z,95.03
2023-05-05T00:14:06.556Z,95.26
2023-05-05T00:16:33.946Z,95.31
2023-05-05T00:19:05.818Z,95.32
2023-05-05T00:21:35.452Z,95.64
2023-05-05T00:24:02.886Z,95.80
2023-05-05T00:26:30.222Z,95.45
2023-05-05T00:28:57.783Z,95.87
2023-05-05T00:31:24.936Z,95.98
2023-05-05T00:33:52.195Z,96.08
2023-05-05T00:36:22.036Z,96.08
2023-05-05T00:38:49.170Z,96.27
2023-05-05T00:41:16.471Z,96.39
2023-05-05T00:43:43.575Z,96.43
2023-05-05T00:46:30.727Z,96.77
2023-05-05T00:48:58.121Z,96.72
2023-05-05T00:51:28.651Z,96.76
2023-05-05T00:53:58.694Z,96.72
2023-05-05T00:56:27.387Z,96.68
2023-05-05T00:58:55.185Z,96.49
2023-05-05T01:01:23.075Z,96.44
2023-05-05T01:03:50.445Z,96.52
2023-05-05T01:06:25.273Z,96.44
2023-05-05T01:09:21.674Z,96.34
2023-05-05T01:12:14.726Z,96.35
2023-05-05T01:14:53.049Z,96.40
2023-05-05T01:17:24.426Z,96.26
2023-05-05T01:20:20.761Z,96.21
2023-05-05T01:22:53.137Z,96.51
2023-05-05T01:26:00.558Z,97.04
2023-05-05T01:28:50.988Z,97.14
2023-05-05T01:31:27.115Z,97.12
2023-05-05T01:34:16.726Z,96.92
2023-05-05T01:36:49.620Z,96.89
2023-05-05T01:39:22.088Z,97.06
2023-05-05T01:41:56.774Z,97.31
2023-05-05T01:44:24.438Z,97.33
2023-05-05T01:46:53.194Z,97.27
2023-05-05T01:49:20.751Z,97.14
2023-05-05T01:51:49.190Z,96.98
2023-05-05T01:54:18.658Z,97.15
2023-05-05T01:56:48.620Z,97.20
2023-05-05T01:59:21.061Z,97.45
2023-05-05T02:01:49.960Z,97.61
2023-05-05T02:04:18.579Z,97.60
2023-05-05T02:06:50.336Z,97.64
2023-05-05T02:09:17.638Z,97.84
2023-05-05T02:11:45.390Z,97.92
2023-05-05T02:14:16.159Z,97.69
2023-05-05T02:16:46.789Z,98.02
2023-05-05T02:19:15.688Z,97.98
2023-05-05T02:21:43.149Z,98.11
2023-05-05T02:24:13.045Z,98.46
2023-05-05T02:26:43.944Z,98.71
2023-05-05T02:29:19.786Z,99.03
2023-05-05T02:31:50.612Z,99.10
2023-05-05T02:34:27.961Z,99.19
2023-05-05T02:37:03.504Z,99.13
2023-05-05T02:39:43.731Z,99.57
2023-05-05T02:42:21.609Z,99.33
2023-05-05T02:44:55.488Z,99.59
2023-05-05T02:47:23.464Z,99.68
2023-05-05T02:49:55.256Z,99.67
2023-05-05T02:52:24.991Z,100.00
2023-05-05T02:54:52.702Z,99.86
2023-05-05T02:57:26.181Z,99.89
2023-05-05T03:00:20.789Z,99.98
2023-05-05T03:03:07.471Z,99.92
2023-05-05T03:05:45.867Z,99.84
2023-05-05T03:08:20.628Z,99.81
2023-05-05T03:10:58.892Z,99.55
2023-05-05T03:13:28.254Z,99.90
2023-05-05T03:15:57.934Z,99.72
2023-05-05T03:18:29.859Z,99.24
2023-05-05T03:21:08.874Z,99.32
2023-05-05T03:23:39.228Z,99.61
2023-05-05T03:26:17.144Z,99.71
2023-05-05T03:28:44.402Z,100.00
2023-05-05T03:31:34.424Z,100.00
2023-05-05T03:34:04.962Z,100.00
2023-05-05T03:36:39.819Z,100.00
2023-05-05T03:39:12.574Z,100.00
2023-05-05T03:41:39.882Z,100.00
2023-05-05T03:44:09.172Z,100.00
2023-05-05T03:46:37.320Z,100.00
2023-05-05T03:49:09.101Z,100.00
2023-05-05T03:51:40.981Z,100.00
2023-05-05T03:54:11.204Z,100.00
2023-05-05T03:56:41.346Z,100.00
2023-05-05T03:59:13.208Z,100.00
2023-05-05T04:01:40.533Z,100.00
2023-05-05T04:04:09.404Z,100.00
2023-05-05T04:06:36.788Z,100.00
2023-05-05T04:09:07.161Z,100.00
2023-05-05T04:11:34.690Z,100.00
2023-05-05T04:14:04.682Z,100.00
2023-05-05T04:16:32.400Z,100.00
2023-05-05T04:19:00.047Z,100.00
2023-05-05T04:21:29.569Z,100.00
2023-05-05T04:23:59.316Z,100.00
2023-05-05T04:26:29.193Z,100.00
2023-05-05T04:28:56.910Z,100.00
2023-05-05T04:31:24.416Z,100.00
2023-05-05T04:33:56.920Z,100.00
2023-05-05T04:36:24.122Z,100.00
2023-05-05T04:38:51.390Z,100.00
2023-05-05T04:41:18.792Z,100.00
2023-05-05T04:43:46.415Z,100.00
2023-05-05T04:46:14.446Z,100.00
2023-05-05T04:48:41.721Z,100.00
2023-05-05T04:51:09.567Z,100.00
2023-05-05T04:53:37.920Z,100.00
2023-05-05T04:56:05.696Z,100.00
2023-05-05T04:58:33.009Z,100.00
2023-05-05T05:01:00.420Z,100.00
2023-05-05T05:03:27.808Z,100.00
2023-05-05T05:05:57.362Z,100.00
2023-05-05T05:08:24.881Z,100.00
2023-05-05T05:10:52.185Z,100.00
2023-05-05T05:13:19.563Z,100.00
2023-05-05T05:15:46.870Z,100.00
2023-05-05T05:18:14.104Z,100.00
2023-05-05T05:20:44.083Z,100.00
2023-05-05T05:23:11.689Z,100.00
2023-05-05T05:25:45.917Z,100.00
2023-05-05T05:28:15.356Z,100.00
2023-05-05T05:30:48.121Z,100.00
2023-05-05T05:33:17.731Z,100.00
2023-05-05T05:35:47.748Z,100.00
2023-05-05T05:38:17.541Z,100.00
2023-05-05T05:40:44.892Z,100.00
2023-05-05T05:43:12.479Z,100.00
2023-05-05T05:45:40.293Z,100.00
2023-05-05T05:48:08.618Z,100.00
2023-05-05T05:50:37.921Z,100.00
2023-05-05T05:53:05.319Z,100.00
2023-05-05T05:55:32.704Z,100.00
2023-05-05T05:58:00.306Z,100.00
2023-05-05T06:00:30.377Z,100.00
2023-05-05T06:03:04.438Z,100.00
2023-05-05T06:05:35.685Z,100.00
2023-05-05T06:08:05.356Z,100.00
2023-05-05T06:10:36.519Z,100.00
2023-05-05T06:13:08.746Z,100.00
2023-05-05T06:15:41.750Z,100.00
2023-05-05T06:18:09.494Z,100.00
2023-05-05T06:20:39.202Z,100.00
2023-05-05T06:23:07.089Z,100.00
2023-05-05T06:25:41.982Z,100.00
2023-05-05T06:28:09.356Z,100.00
2023-05-05T06:30:36.732Z,100.00
2023-05-05T06:33:04.180Z,100.00
2023-05-05T06:35:32.065Z,100.00
2023-05-05T06:38:01.526Z,100.00
2023-05-05T06:40:31.809Z,100.00
2023-05-05T06:43:01.256Z,100.00
2023-05-05T06:45:37.318Z,100.00
2023-05-05T06:48:04.766Z,100.00
2023-05-05T06:50:32.152Z,100.00
2023-05-05T06:52:59.451Z,100.00
2023-05-05T06:55:26.732Z,100.00
2023-05-05T06:57:54.251Z,100.00
2023-05-05T07:00:26.438Z,100.00
2023-05-05T07:02:56.339Z,100.00
2023-05-05T07:05:23.786Z,100.00
2023-05-05T07:07:52.824Z,100.00
2023-05-05T07:10:25.988Z,100.00
2023-05-05T07:12:54.815Z,100.00
2023-05-05T07:15:28.644Z,100.00
2023-05-05T07:17:57.497Z,100.00
2023-05-05T07:20:27.158Z,100.00
2023-05-05T07:22:54.452Z,100.00
2023-05-05T07:25:23.458Z,100.00
2023-05-05T07:27:51.081Z,100.00
2023-05-05T07:30:21.327Z,100.00
2023-05-05T07:32:49.619Z,100.00
2023-05-05T07:35:17.154Z,100.00
2023-05-05T07:37:45.954Z,100.00
2023-05-05T07:40:13.651Z,100.00
2023-05-05T07:42:43.397Z,100.00
2023-05-05T07:45:15.727Z,100.00
2023-05-05T07:47:43.115Z,100.00
2023-05-05T07:50:13.183Z,100.00
2023-05-05T07:52:49.972Z,100.00
2023-05-05T07:55:21.344Z,100.00
2023-05-05T07:57:49.740Z,100.00
2023-05-05T08:00:19.452Z,100.00
2023-05-05T08:02:47.966Z,100.00
2023-05-05T08:05:18.520Z,100.00
2023-05-05T08:07:45.961Z,100.00
2023-05-05T08:10:13.303Z,100.00
2023-05-05T08:12:40.912Z,100.00
2023-05-05T08:15:08.957Z,100.00
2023-05-05T08:17:46.632Z,100.00
2023-05-05T08:20:16.303Z,100.00
2023-05-05T08:22:44.135Z,100.00
2023-05-05T08:25:17.152Z,100.00
2023-05-05T08:27:44.605Z,100.00
2023-05-05T08:30:12.446Z,100.00
2023-05-05T08:32:40.524Z,100.00
2023-05-05T08:35:08.405Z,100.00
2023-05-05T08:37:36.402Z,100.00
2023-05-05T08:40:04.521Z,100.00
2023-05-05T08:42:37.031Z,100.00
2023-05-05T08:45:07.711Z,100.00
2023-05-05T08:47:36.830Z,100.00
2023-05-05T08:50:09.943Z,100.00
2023-05-05T08:52:45.182Z,100.00
2023-05-05T08:55:26.754Z,100.00
2023-05-05T08:58:01.213Z,100.00
2023-05-05T09:00:31.522Z,100.00
2023-05-05T09:03:00.220Z,100.00
2023-05-05T09:05:32.330Z,100.00
2023-05-05T09:08:02.248Z,100.00
2023-05-05T09:10:32.629Z,100.00
2023-05-05T09:13:00.192Z,100.00
2023-05-05T09:15:28.387Z,100.00
2023-05-05T09:17:58.548Z,100.00
2023-05-05T09:20:37.079Z,100.00
2023-05-05T09:23:15.115Z,100.00
2023-05-05T09:26:05.664Z,100.00
2023-05-05T09:28:32.932Z,100.00
2023-05-05T09:31:16.204Z,100.00
2023-05-05T09:33:43.878Z,100.00
2023-05-05T09:36:13.366Z,100.00
2023-05-05T09:38:40.870Z,100.00
2023-05-05T09:41:08.039Z,100.00
2023-05-05T09:43:53.679Z,100.00
2023-05-05T09:46:21.146Z,100.00
2023-05-05T09:48:51.405Z,100.00
2023-05-05T09:51:28.987Z,100.00
2023-05-05T09:53:56.812Z,100.00
2023-05-05T09:56:37.632Z,100.00
2023-05-05T09:59:09.437Z,100.00
2023-05-05T10:01:43.362Z,100.00
2023-05-05T10:04:22.956Z,100.00
2023-05-05T10:07:05.976Z,100.00
2023-05-05T10:09:36.319Z,100.00
2023-05-05T10:12:05.527Z,100.00
2023-05-05T10:14:34.769Z,100.00
2023-05-05T10:17:03.034Z,100.00
2023-05-05T10:19:37.296Z,100.00
2023-05-05T10:22:10.804Z,100.00
2023-05-05T10:24:40.432Z,100.00
2023-05-05T10:27:15.123Z,100.00
2023-05-05T10:29:54.636Z,100.00
2023-05-05T10:32:53.564Z,100.00
2023-05-05T10:35:23.520Z,100.00
2023-05-05T10:37:50.925Z,100.00
2023-05-05T10:40:21.600Z,100.00
2023-05-05T10:42:50.852Z,100.00
2023-05-05T10:45:21.697Z,100.00
2023-05-05T10:47:49.840Z,100.00
2023-05-05T10:50:33.486Z,100.00
2023-05-05T10:53:16.628Z,100.00
2023-05-05T10:56:05.242Z,100.00
2023-05-05T10:58:51.165Z,100.00
2023-05-05T11:01:33.033Z,100.00
2023-05-05T11:04:23.643Z,100.00
2023-05-05T11:07:11.844Z,100.00
2023-05-05T11:10:06.736Z,100.00
2023-05-05T11:12:54.577Z,100.00
2023-05-05T11:15:30.670Z,100.00
2023-05-05T11:17:59.222Z,100.00
2023-05-05T11:20:43.454Z,100.00
2023-05-05T11:23:10.826Z,100.00
2023-05-05T11:25:40.639Z,100.00
2023-05-05T11:28:16.278Z,100.00
2023-05-05T11:30:59.205Z,100.00
2023-05-05T11:33:34.950Z,100.00
2023-05-05T11:36:08.928Z,100.00
2023-05-05T11:38:38.432Z,100.00
2023-05-05T11:41:19.595Z,100.00
2023-05-05T11:43:46.781Z,100.00
2023-05-05T11:46:16.816Z,100.00
2023-05-05T11:48:49.456Z,100.00
2023-05-05T11:51:18.507Z,100.00
2023-05-05T11:53:49.884Z,100.00
2023-05-05T11:56:21.811Z,100.00
2023-05-05T11:59:05.162Z,100.00
2023-05-05T12:01:32.776Z,100.00
2023-05-05T12:04:03.714Z,100.00
2023-05-05T12:06:33.544Z,100.00
2023-05-05T12:09:01.302Z,100.00
2023-05-05T12:11:28.504Z,100.00
2023-05-05T12:14:11.333Z,100.00
2023-05-05T12:16:39.324Z,100.00
2023-05-05T12:19:08.178Z,100.00
2023-05-05T12:21:40.167Z,100.00
2023-05-05T12:24:12.514Z,100.00
2023-05-05T12:26:42.213Z,100.00
2023-05-05T12:29:11.817Z,100.00
2023-05-05T12:31:42.030Z,100.00
2023-05-05T12:34:11.136Z,100.00
2023-05-05T12:36:41.632Z,100.00
2023-05-05T12:39:09.145Z,100.00
2023-05-05T12:41:36.524Z,100.00
2023-05-05T12:44:04.327Z,100.00
2023-05-05T12:46:48.413Z,100.00
2023-05-05T12:49:16.542Z,100.00
2023-05-05T12:51:59.009Z,100.00
2023-05-05T12:54:30.232Z,100.00
2023-05-05T12:56:58.579Z,100.00
2023-05-05T12:59:25.925Z,100.00
2023-05-05T13:01:57.038Z,100.00
2023-05-05T13:04:26.677Z,100.00
2023-05-05T13:07:13.852Z,100.00
2023-05-05T13:09:41.490Z,100.00
2023-05-05T13:12:12.391Z,100.00
2023-05-05T13:14:42.979Z,100.00
2023-05-05T13:17:11.849Z,100.00
2023-05-05T13:19:45.892Z,100.00
2023-05-05T13:22:18.498Z,100.00
2023-05-05T13:24:51.436Z,100.00
2023-05-05T13:27:20.447Z,100.00
2023-05-05T13:29:51.137Z,100.00
2023-05-05T13:32:19.571Z,100.00
2023-05-05T13:34:46.986Z,100.00
2023-05-05T13:37:14.560Z,100.00
2023-05-05T13:39:51.927Z,100.00
2023-05-05T13:42:19.387Z,100.00
2023-05-05T13:44:46.852Z,100.00
2023-05-05T13:47:16.962Z,100.00
2023-05-05T13:49:44.204Z,100.00
2023-05-05T13:52:11.658Z,100.00
2023-05-05T13:54:57.074Z,100.00
2023-05-05T13:57:44.862Z,100.00
2023-05-05T14:00:28.886Z,100.00
2023-05-05T14:02:56.045Z,100.00
2023-05-05T14:05:23.365Z,100.00
2023-05-05T14:07:55.750Z,100.00
2023-05-05T14:10:26.048Z,100.00
2023-05-05T14:13:11.359Z,100.00
2023-05-05T14:16:08.404Z,100.00
2023-05-05T14:18:45.658Z,100.00
2023-05-05T14:21:13.268Z,100.00
2023-05-05T14:23:58.946Z,100.00
2023-05-05T14:26:45.847Z,100.00
2023-05-05T14:29:20.295Z,100.00
2023-05-05T14:31:49.691Z,100.00
2023-05-05T14:34:19.106Z,100.00
2023-05-05T14:36:46.683Z,100.00
2023-05-05T14:39:16.003Z,100.00
2023-05-05T14:41:43.446Z,100.00
2023-05-05T14:44:10.723Z,100.00
2023-05-05T14:46:38.257Z,100.00
2023-05-05T14:49:07.964Z,100.00
2023-05-05T14:51:37.526Z,100.00
2023-05-05T14:54:17.413Z,100.00
2023-05-05T14:56:55.263Z,100.00
2023-05-05T14:59:22.432Z,100.00
2023-05-05T15:01:52.011Z,100.00
2023-05-05T15:04:21.599Z,100.00
2023-05-05T15:06:50.069Z,100.00
2023-05-05T15:09:18.058Z,100.00
2023-05-05T15:11:45.822Z,100.00
2023-05-05T15:14:17.843Z,100.00
2023-05-05T15:16:46.736Z,100.00
2023-05-05T15:19:16.505Z,100.00
2023-05-05T15:21:43.672Z,100.00
2023-05-05T15:24:11.058Z,100.00
2023-05-05T15:26:42.837Z,100.00
2023-05-05T15:29:10.253Z,100.00
2023-05-05T15:31:37.522Z,100.00
2023-05-05T15:34:04.719Z,100.00
2023-05-05T15:36:32.221Z,100.00
2023-05-05T15:39:02.695Z,100.00
2023-05-05T15:41:36.225Z,100.00
2023-05-05T15:44:08.723Z,100.00
2023-05-05T15:46:36.150Z,100.00
2023-05-05T15:49:05.888Z,100.00
2023-05-05T15:51:33.278Z,100.00
2023-05-05T15:54:03.519Z,100.00
2023-05-05T15:56:35.570Z,100.00
2023-05-05T15:59:03.264Z,100.00
2023-05-05T16:01:33.650Z,100.00
2023-05-05T16:04:03.623Z,100.00
2023-05-05T16:06:33.277Z,100.00
2023-05-05T16:09:00.631Z,100.00
2023-05-05T16:11:30.863Z,100.00
2023-05-05T16:13:58.161Z,100.00
2023-05-05T16:16:30.710Z,100.00
2023-05-05T16:18:58.264Z,100.00
2023-05-05T16:21:34.929Z,100.00
2023-05-05T16:24:04.852Z,100.00
2023-05-05T16:26:32.272Z,100.00
2023-05-05T16:28:59.514Z,100.00
2023-05-05T16:31:27.042Z,100.00
2023-05-05T16:33:57.441Z,100.00
2023-05-05T16:36:28.536Z,100.00
2023-05-05T16:38:56.449Z,100.00
2023-05-05T16:41:23.902Z,100.00
2023-05-05T16:43:51.507Z,100.00
2023-05-05T16:46:21.103Z,100.00
2023-05-05T16:48:48.298Z,100.00
2023-05-05T16:51:18.045Z,100.00
2023-05-05T16:53:49.050Z,100.00
2023-05-05T16:56:18.831Z,100.00
2023-05-05T16:58:49.044Z,100.00
2023-05-05T17:01:41.745Z,100.00
2023-05-05T17:04:12.124Z,100.00
2023-05-05T17:06:39.341Z,100.00
2023-05-05T17:09:09.071Z,100.00
2023-05-05T17:11:36.465Z,100.00
2023-05-05T17:14:03.936Z,100.00
2023-05-05T17:16:31.696Z,100.00
2023-05-05T17:19:17.217Z,100.00
2023-05-05T17:22:12.467Z,100.00
2023-05-05T17:24:39.711Z,100.00
2023-05-05T17:27:07.167Z,100.00
2023-05-05T17:29:40.771Z,100.00
2023-05-05T17:32:11.013Z,100.00
2023-05-05T17:34:38.700Z,100.00
2023-05-05T17:37:09.262Z,100.00
2023-05-05T17:39:39.197Z,100.00
2023-05-05T17:42:06.557Z,100.00
2023-05-05T17:44:36.114Z,100.00
2023-05-05T17:47:04.024Z,100.00
2023-05-05T17:49:31.552Z,100.00
2023-05-05T17:51:58.851Z,100.00
2023-05-05T17:54:26.403Z,100.00
2023-05-05T17:56:55.750Z,100.00
2023-05-05T17:59:23.483Z,100.00
2023-05-05T18:01:50.861Z,100.00
2023-05-05T18:04:20.691Z,100.00
2023-05-05T18:06:48.543Z,100.00
2023-05-05T18:09:18.067Z,100.00
2023-05-05T18:11:48.097Z,100.00
2023-05-05T18:14:23.749Z,100.00
2023-05-05T18:16:52.344Z,100.00
2023-05-05T18:19:23.246Z,100.00
2023-05-05T18:21:54.846Z,100.00
2023-05-05T18:24:22.220Z,100.00
2023-05-05T18:26:51.288Z,100.00
2023-05-05T18:29:19.644Z,100.00
2023-05-05T18:31:51.923Z,100.00
2023-05-05T18:34:20.542Z,100.00
2023-05-05T18:36:50.747Z,100.00
2023-05-05T18:39:18.020Z,100.00
2023-05-05T18:41:49.710Z,100.00
2023-05-05T18:44:19.973Z,100.00
2023-05-05T18:46:48.014Z,100.00
2023-05-05T18:49:15.512Z,100.00
2023-05-05T18:51:43.398Z,100.00
2023-05-05T18:54:10.763Z,100.00
2023-05-05T18:56:38.107Z,100.00
2023-05-05T18:59:05.512Z,100.00
2023-05-05T19:01:35.136Z,100.00
2023-05-05T19:04:08.528Z,100.00
2023-05-05T19:06:40.772Z,100.00
2023-05-05T19:09:08.148Z,100.00
2023-05-05T19:11:41.760Z,100.00
2023-05-05T19:14:09.067Z,100.00
2023-05-05T19:16:43.689Z,100.00
2023-05-05T19:19:13.322Z,100.00
2023-05-05T19:21:43.233Z,100.00
2023-05-05T19:24:12.478Z,100.00
2023-05-05T19:26:40.095Z,100.00
2023-05-05T19:29:07.514Z,100.00
2023-05-05T19:31:34.966Z,100.00
2023-05-05T19:34:04.360Z,100.00
2023-05-05T19:36:32.896Z,100.00
2023-05-05T19:39:01.896Z,100.00
2023-05-05T19:41:30.502Z,100.00
2023-05-05T19:44:00.187Z,100.00
2023-05-05T19:46:29.705Z,100.00
2023-05-05T19:48:59.482Z,100.00
2023-05-05T19:51:27.308Z,100.00
2023-05-05T19:53:54.501Z,100.00
2023-05-05T19:56:23.004Z,100.00
2023-05-05T19:58:59.197Z,100.00
2023-05-05T20:01:28.250Z,100.00
2023-05-05T20:03:56.623Z,100.00
2023-05-05T20:06:24.343Z,100.00
2023-05-05T20:08:56.818Z,100.00
2023-05-05T20:11:25.795Z,100.00
2023-05-05T20:13:53.254Z,100.00
2023-05-05T20:16:22.038Z,100.00
2023-05-05T20:18:49.797Z,100.00
2023-05-05T20:21:18.214Z,100.00
2023-05-05T20:23:47.560Z,100.00
2023-05-05T20:26:14.700Z,100.00
2023-05-05T20:28:45.062Z,100.00
2023-05-05T20:31:14.374Z,100.00
2023-05-05T20:33:41.981Z,100.00
2023-05-05T20:36:09.420Z,100.00
2023-05-05T20:38:41.678Z,100.00
2023-05-05T20:41:11.547Z,100.00
2023-05-05T20:43:41.211Z,100.00
2023-05-05T20:46:13.034Z,100.00
2023-05-05T20:48:42.724Z,100.00
2023-05-05T20:51:13.307Z,100.00
2023-05-05T20:53:40.673Z,100.00
2023-05-05T20:56:10.678Z,100.00
2023-05-05T20:58:41.241Z,100.00
2023-05-05T21:01:08.755Z,100.00
2023-05-05T21:03:36.333Z,100.00
2023-05-05T21:06:05.876Z,100.00
2023-05-05T21:08:35.507Z,100.00
2023-05-05T21:11:03.095Z,100.00
2023-05-05T21:13:30.492Z,100.00
2023-05-05T21:15:57.966Z,100.00
2023-05-05T21:18:27.228Z,100.00
2023-05-05T21:20:54.853Z,100.00
2023-05-05T21:23:24.283Z,100.00
2023-05-05T21:25:51.842Z,100.00
2023-05-05T21:28:19.198Z,100.00
2023-05-05T21:30:54.961Z,100.00
2023-05-05T21:33:34.631Z,100.00
2023-05-05T21:36:02.108Z,100.00
2023-05-05T21:38:29.532Z,100.00
2023-05-05T21:40:58.356Z,100.00
2023-05-05T21:43:26.549Z,100.00
2023-05-05T21:46:05.536Z,100.00
2023-05-05T21:48:32.838Z,100.00
2023-05-05T21:51:02.558Z,100.00
2023-05-05T21:53:29.765Z,100.00
2023-05-05T21:55:57.139Z,100.00
2023-05-05T21:58:27.152Z,100.00
2023-05-05T22:00:56.683Z,100.00
2023-05-05T22:03:24.191Z,100.00
2023-05-05T22:05:54.071Z,100.00
2023-05-05T22:08:23.510Z,100.00
2023-05-05T22:10:53.512Z,100.00
2023-05-05T22:13:23.207Z,100.00
2023-05-05T22:15:50.893Z,100.00
2023-05-05T22:18:25.590Z,100.00
2023-05-05T22:20:53.013Z,100.00
2023-05-05T22:23:20.420Z,100.00
2023-05-05T22:25:49.056Z,100.00
2023-05-05T22:28:18.545Z,100.00
2023-05-05T22:30:46.405Z,100.00
2023-05-05T22:33:13.666Z,100.00
2023-05-05T22:35:41.369Z,100.00
2023-05-05T22:38:10.962Z,100.00
2023-05-05T22:40:38.429Z,100.00
2023-05-05T22:43:05.880Z,100.00
2023-05-05T22:45:36.668Z,100.00
2023-05-05T22:48:04.757Z,100.00
2023-05-05T22:50:34.202Z,100.00
2023-05-05T22:53:03.776Z,100.00
2023-05-05T22:55:34.033Z,100.00
2023-05-05T22:58:01.658Z,100.00
2023-05-05T23:00:29.378Z,100.00
2023-05-05T23:02:58.158Z,100.00
2023-05-05T23:05:27.730Z,100.00
2023-05-05T23:08:01.239Z,100.00
2023-05-05T23:10:29.031Z,100.00
2023-05-05T23:12:58.514Z,100.00
2023-05-05T23:15:25.780Z,100.00
2023-05-05T23:17:53.097Z,100.00
2023-05-05T23:20:22.854Z,100.00
2023-05-05T23:22:52.565Z,100.00
2023-05-05T23:25:20.170Z,100.00
2023-05-05T23:27:47.940Z,100.00
2023-05-05T23:30:15.498Z,100.00
2023-05-05T23:32:44.951Z,100.00
2023-05-05T23:35:14.641Z,100.00
2023-05-05T23:37:41.916Z,100.00
2023-05-05T23:40:09.539Z,100.00
2023-05-05T23:42:36.887Z,100.00
2023-05-05T23:45:04.454Z,100.00
2023-05-05T23:47:32.275Z,100.00
2023-05-05T23:49:59.603Z,100.00
2023-05-05T23:52:26.947Z,100.00
2023-05-05T23:54:54.322Z,100.00
2023-05-05T23:57:26.204Z,100.00
2023-05-05T23:59:53.529Z,100.00
